sensor_id;sensor_type;location;lat;lon;timestamp;temperature;humidity
44136;DHT22;29798;51.064;13.734;2022-08-24T00:01:15;19.70;99.90
44136;DHT22;29798;51.064;13.734;2022-08-24T00:03:42;19.70;99.90
44136;DHT22;29798;51.064;13.734;2022-08-24T00:06:09;19.70;99.90
44136;DHT22;29798;51.064;13.734;2022-08-24T00:08:37;19.70;99.90
44136;DHT22;29798;51.064;13.734;2022-08-24T00:11:04;19.70;99.90
44136;DHT22;29798;51.064;13.734;2022-08-24T00:13:30;19.70;99.90
44136;DHT22;29798;51.064;13.734;2022-08-24T00:15:56;19.70;99.90
44136;DHT22;29798;51.064;13.734;2022-08-24T00:18:22;19.80;99.90
44136;DHT22;29798;51.064;13.734;2022-08-24T00:20:47;19.80;99.90
44136;DHT22;29798;51.064;13.734;2022-08-24T00:23:13;19.80;99.90
44136;DHT22;29798;51.064;13.734;2022-08-24T00:25:39;19.80;99.90
44136;DHT22;29798;51.064;13.734;2022-08-24T00:28:05;19.80;99.90
44136;DHT22;29798;51.064;13.734;2022-08-24T00:30:31;19.70;99.90
44136;DHT22;29798;51.064;13.734;2022-08-24T00:32:57;19.70;99.90
44136;DHT22;29798;51.064;13.734;2022-08-24T00:35:23;19.60;99.90
44136;DHT22;29798;51.064;13.734;2022-08-24T00:37:50;19.70;99.90
44136;DHT22;29798;51.064;13.734;2022-08-24T00:40:20;19.70;99.90
44136;DHT22;29798;51.064;13.734;2022-08-24T00:43:05;19.60;99.90
44136;DHT22;29798;51.064;13.734;2022-08-24T00:45:33;19.60;99.90
44136;DHT22;29798;51.064;13.734;2022-08-24T00:48:04;19.60;99.90
44136;DHT22;29798;51.064;13.734;2022-08-24T00:50:40;19.60;99.90
44136;DHT22;29798;51.064;13.734;2022-08-24T00:53:09;19.60;99.90
44136;DHT22;29798;51.064;13.734;2022-08-24T00:55:41;19.60;99.90
44136;DHT22;29798;51.064;13.734;2022-08-24T00:58:13;19.60;99.90
44136;DHT22;29798;51.064;13.734;2022-08-24T01:00:50;19.60;99.90
44136;DHT22;29798;51.064;13.734;2022-08-24T01:03:22;19.60;99.90
44136;DHT22;29798;51.064;13.734;2022-08-24T01:05:48;19.50;99.90
44136;DHT22;29798;51.064;13.734;2022-08-24T01:08:14;19.50;99.90
44136;DHT22;29798;51.064;13.734;2022-08-24T01:10:42;19.50;99.90
44136;DHT22;29798;51.064;13.734;2022-08-24T01:13:10;19.40;99.90
44136;DHT22;29798;51.064;13.734;2022-08-24T01:15:38;19.40;99.90
44136;DHT22;29798;51.064;13.734;2022-08-24T01:18:06;19.50;99.90
44136;DHT22;29798;51.064;13.734;2022-08-24T01:20:55;19.50;99.90
44136;DHT22;29798;51.064;13.734;2022-08-24T01:25:59;19.40;99.90
44136;DHT22;29798;51.064;13.734;2022-08-24T01:28:24;19.40;99.90
44136;DHT22;29798;51.064;13.734;2022-08-24T01:30:51;19.30;99.90
44136;DHT22;29798;51.064;13.734;2022-08-24T01:33:24;19.20;99.90
44136;DHT22;29798;51.064;13.734;2022-08-24T01:35:53;19.20;99.90
44136;DHT22;29798;51.064;13.734;2022-08-24T01:38:23;19.20;99.90
44136;DHT22;29798;51.064;13.734;2022-08-24T01:40:49;19.20;99.90
44136;DHT22;29798;51.064;13.734;2022-08-24T01:43:18;19.20;99.90
44136;DHT22;29798;51.064;13.734;2022-08-24T01:45:43;19.10;99.90
44136;DHT22;29798;51.064;13.734;2022-08-24T01:48:10;19.10;99.90
44136;DHT22;29798;51.064;13.734;2022-08-24T01:50:36;19.10;99.90
44136;DHT22;29798;51.064;13.734;2022-08-24T01:53:02;19.00;99.90
44136;DHT22;29798;51.064;13.734;2022-08-24T01:55:30;19.00;99.90
44136;DHT22;29798;51.064;13.734;2022-08-24T01:57:57;18.90;99.90
44136;DHT22;29798;51.064;13.734;2022-08-24T02:00:23;18.80;99.90
44136;DHT22;29798;51.064;13.734;2022-08-24T02:02:50;18.80;99.90
44136;DHT22;29798;51.064;13.734;2022-08-24T02:05:16;18.80;99.90
44136;DHT22;29798;51.064;13.734;2022-08-24T02:07:44;18.70;99.90
44136;DHT22;29798;51.064;13.734;2022-08-24T02:10:12;18.70;99.90
44136;DHT22;29798;51.064;13.734;2022-08-24T02:12:39;18.70;99.90
44136;DHT22;29798;51.064;13.734;2022-08-24T02:15:08;18.70;99.90
44136;DHT22;29798;51.064;13.734;2022-08-24T02:17:35;18.70;99.90
44136;DHT22;29798;51.064;13.734;2022-08-24T02:20:02;18.70;99.90
44136;DHT22;29798;51.064;13.734;2022-08-24T02:22:30;18.70;99.90
44136;DHT22;29798;51.064;13.734;2022-08-24T02:24:56;18.70;99.90
44136;DHT22;29798;51.064;13.734;2022-08-24T02:27:22;18.70;99.90
44136;DHT22;29798;51.064;13.734;2022-08-24T02:29:47;18.70;99.90
44136;DHT22;29798;51.064;13.734;2022-08-24T02:32:13;18.70;99.90
44136;DHT22;29798;51.064;13.734;2022-08-24T02:34:39;18.70;99.90
44136;DHT22;29798;51.064;13.734;2022-08-24T02:37:05;18.50;99.90
44136;DHT22;29798;51.064;13.734;2022-08-24T02:39:32;18.40;99.90
44136;DHT22;29798;51.064;13.734;2022-08-24T02:42:02;18.40;99.90
44136;DHT22;29798;51.064;13.734;2022-08-24T02:44:28;18.40;99.90
44136;DHT22;29798;51.064;13.734;2022-08-24T02:46:54;18.30;99.90
44136;DHT22;29798;51.064;13.734;2022-08-24T02:49:20;18.30;99.90
44136;DHT22;29798;51.064;13.734;2022-08-24T02:51:48;18.20;99.90
44136;DHT22;29798;51.064;13.734;2022-08-24T02:54:17;18.10;99.90
44136;DHT22;29798;51.064;13.734;2022-08-24T02:56:45;18.10;99.90
44136;DHT22;29798;51.064;13.734;2022-08-24T02:59:11;18.00;99.90
44136;DHT22;29798;51.064;13.734;2022-08-24T03:01:36;18.00;99.90
44136;DHT22;29798;51.064;13.734;2022-08-24T03:04:02;17.90;99.90
44136;DHT22;29798;51.064;13.734;2022-08-24T03:06:28;17.90;99.90
44136;DHT22;29798;51.064;13.734;2022-08-24T03:08:54;18.00;99.90
44136;DHT22;29798;51.064;13.734;2022-08-24T03:11:21;18.00;99.90
44136;DHT22;29798;51.064;13.734;2022-08-24T03:13:47;18.00;99.90
44136;DHT22;29798;51.064;13.734;2022-08-24T03:16:12;17.90;99.90
44136;DHT22;29798;51.064;13.734;2022-08-24T03:18:38;17.90;99.90
44136;DHT22;29798;51.064;13.734;2022-08-24T03:21:04;17.90;99.90
44136;DHT22;29798;51.064;13.734;2022-08-24T03:23:34;17.80;99.90
44136;DHT22;29798;51.064;13.734;2022-08-24T03:26:01;17.80;99.90
44136;DHT22;29798;51.064;13.734;2022-08-24T03:28:27;17.80;99.90
44136;DHT22;29798;51.064;13.734;2022-08-24T03:30:54;17.80;99.90
44136;DHT22;29798;51.064;13.734;2022-08-24T03:33:19;17.80;99.90
44136;DHT22;29798;51.064;13.734;2022-08-24T03:35:45;17.80;99.90
44136;DHT22;29798;51.064;13.734;2022-08-24T03:38:14;19.10;99.90
44136;DHT22;29798;51.064;13.734;2022-08-24T03:40:40;17.90;99.90
44136;DHT22;29798;51.064;13.734;2022-08-24T03:43:07;18.00;99.90
44136;DHT22;29798;51.064;13.734;2022-08-24T03:45:33;18.00;99.90
44136;DHT22;29798;51.064;13.734;2022-08-24T03:47:59;18.00;99.90
44136;DHT22;29798;51.064;13.734;2022-08-24T03:50:25;18.00;99.90
44136;DHT22;29798;51.064;13.734;2022-08-24T03:52:52;18.00;99.90
44136;DHT22;29798;51.064;13.734;2022-08-24T03:55:18;17.90;99.90
44136;DHT22;29798;51.064;13.734;2022-08-24T03:57:46;17.80;99.90
44136;DHT22;29798;51.064;13.734;2022-08-24T04:00:12;17.80;99.90
44136;DHT22;29798;51.064;13.734;2022-08-24T04:02:47;17.80;99.90
44136;DHT22;29798;51.064;13.734;2022-08-24T04:05:17;17.80;99.90
44136;DHT22;29798;51.064;13.734;2022-08-24T04:07:45;17.90;99.90
44136;DHT22;29798;51.064;13.734;2022-08-24T04:10:11;17.90;99.90
44136;DHT22;29798;51.064;13.734;2022-08-24T04:12:38;18.00;99.90
44136;DHT22;29798;51.064;13.734;2022-08-24T04:15:05;18.00;99.90
44136;DHT22;29798;51.064;13.734;2022-08-24T04:17:32;18.00;99.90
44136;DHT22;29798;51.064;13.734;2022-08-24T04:19:58;18.00;99.90
44136;DHT22;29798;51.064;13.734;2022-08-24T04:22:28;18.10;99.90
44136;DHT22;29798;51.064;13.734;2022-08-24T04:24:55;18.10;99.90
44136;DHT22;29798;51.064;13.734;2022-08-24T04:27:21;18.20;99.90
44136;DHT22;29798;51.064;13.734;2022-08-24T04:29:47;18.20;99.90
44136;DHT22;29798;51.064;13.734;2022-08-24T04:32:13;18.30;99.90
44136;DHT22;29798;51.064;13.734;2022-08-24T04:34:42;18.30;99.90
44136;DHT22;29798;51.064;13.734;2022-08-24T04:37:08;18.40;99.90
44136;DHT22;29798;51.064;13.734;2022-08-24T04:39:35;18.30;99.90
44136;DHT22;29798;51.064;13.734;2022-08-24T04:42:22;18.30;99.90
44136;DHT22;29798;51.064;13.734;2022-08-24T04:44:48;18.30;99.90
44136;DHT22;29798;51.064;13.734;2022-08-24T04:47:17;18.30;99.90
44136;DHT22;29798;51.064;13.734;2022-08-24T04:49:43;18.30;99.90
44136;DHT22;29798;51.064;13.734;2022-08-24T04:52:09;18.30;99.90
44136;DHT22;29798;51.064;13.734;2022-08-24T04:54:35;17.00;99.90
44136;DHT22;29798;51.064;13.734;2022-08-24T04:57:08;18.40;99.90
44136;DHT22;29798;51.064;13.734;2022-08-24T04:59:34;18.50;99.90
44136;DHT22;29798;51.064;13.734;2022-08-24T05:02:01;18.50;99.90
44136;DHT22;29798;51.064;13.734;2022-08-24T05:04:26;18.50;99.90
44136;DHT22;29798;51.064;13.734;2022-08-24T05:06:52;18.60;99.90
44136;DHT22;29798;51.064;13.734;2022-08-24T05:09:19;18.70;99.90
44136;DHT22;29798;51.064;13.734;2022-08-24T05:11:45;18.70;99.90
44136;DHT22;29798;51.064;13.734;2022-08-24T05:14:13;18.80;99.90
44136;DHT22;29798;51.064;13.734;2022-08-24T05:16:39;18.90;99.90
44136;DHT22;29798;51.064;13.734;2022-08-24T05:19:05;18.90;99.90
44136;DHT22;29798;51.064;13.734;2022-08-24T05:21:34;19.00;99.90
44136;DHT22;29798;51.064;13.734;2022-08-24T05:24:00;19.10;99.90
44136;DHT22;29798;51.064;13.734;2022-08-24T05:26:30;19.20;99.90
44136;DHT22;29798;51.064;13.734;2022-08-24T05:28:58;19.30;99.90
44136;DHT22;29798;51.064;13.734;2022-08-24T05:31:33;19.30;99.90
44136;DHT22;29798;51.064;13.734;2022-08-24T05:34:04;19.40;99.90
44136;DHT22;29798;51.064;13.734;2022-08-24T05:36:31;19.40;99.90
44136;DHT22;29798;51.064;13.734;2022-08-24T05:38:59;19.50;99.90
44136;DHT22;29798;51.064;13.734;2022-08-24T05:41:26;19.50;99.90
44136;DHT22;29798;51.064;13.734;2022-08-24T05:43:59;19.60;99.90
44136;DHT22;29798;51.064;13.734;2022-08-24T05:46:25;19.60;99.90
44136;DHT22;29798;51.064;13.734;2022-08-24T05:48:52;19.70;99.90
44136;DHT22;29798;51.064;13.734;2022-08-24T05:51:28;19.70;99.90
44136;DHT22;29798;51.064;13.734;2022-08-24T05:53:59;19.80;99.90
44136;DHT22;29798;51.064;13.734;2022-08-24T05:56:33;19.90;99.90
44136;DHT22;29798;51.064;13.734;2022-08-24T05:59:00;20.00;99.90
44136;DHT22;29798;51.064;13.734;2022-08-24T06:01:26;20.10;99.90
44136;DHT22;29798;51.064;13.734;2022-08-24T06:03:52;20.10;99.90
44136;DHT22;29798;51.064;13.734;2022-08-24T06:06:20;20.10;99.90
44136;DHT22;29798;51.064;13.734;2022-08-24T06:08:48;20.10;99.90
44136;DHT22;29798;51.064;13.734;2022-08-24T06:11:48;20.00;99.90
44136;DHT22;29798;51.064;13.734;2022-08-24T06:14:08;20.10;99.90
44136;DHT22;29798;51.064;13.734;2022-08-24T06:16:46;20.10;99.90
44136;DHT22;29798;51.064;13.734;2022-08-24T06:19:14;20.10;99.90
44136;DHT22;29798;51.064;13.734;2022-08-24T06:21:42;20.20;99.90
44136;DHT22;29798;51.064;13.734;2022-08-24T06:24:09;20.20;99.90
44136;DHT22;29798;51.064;13.734;2022-08-24T06:26:35;20.30;99.90
44136;DHT22;29798;51.064;13.734;2022-08-24T06:29:20;20.30;99.90
44136;DHT22;29798;51.064;13.734;2022-08-24T06:31:49;20.40;99.90
44136;DHT22;29798;51.064;13.734;2022-08-24T06:34:17;20.40;99.90
44136;DHT22;29798;51.064;13.734;2022-08-24T06:36:43;20.50;99.90
44136;DHT22;29798;51.064;13.734;2022-08-24T06:39:09;20.70;99.90
44136;DHT22;29798;51.064;13.734;2022-08-24T06:41:38;20.70;99.90
44136;DHT22;29798;51.064;13.734;2022-08-24T06:44:08;20.80;99.90
44136;DHT22;29798;51.064;13.734;2022-08-24T06:46:45;21.00;99.90
44136;DHT22;29798;51.064;13.734;2022-08-24T06:49:11;21.10;99.90
44136;DHT22;29798;51.064;13.734;2022-08-24T06:51:37;21.10;99.90
44136;DHT22;29798;51.064;13.734;2022-08-24T06:54:05;21.10;99.90
44136;DHT22;29798;51.064;13.734;2022-08-24T06:56:31;21.10;99.90
44136;DHT22;29798;51.064;13.734;2022-08-24T06:58:58;21.10;99.90
44136;DHT22;29798;51.064;13.734;2022-08-24T07:01:26;21.00;99.90
44136;DHT22;29798;51.064;13.734;2022-08-24T07:03:53;20.90;99.90
44136;DHT22;29798;51.064;13.734;2022-08-24T07:06:39;20.90;99.90
44136;DHT22;29798;51.064;13.734;2022-08-24T07:09:07;21.10;99.90
44136;DHT22;29798;51.064;13.734;2022-08-24T07:11:33;21.20;99.90
44136;DHT22;29798;51.064;13.734;2022-08-24T07:13:59;21.30;99.90
44136;DHT22;29798;51.064;13.734;2022-08-24T07:16:25;21.40;99.90
44136;DHT22;29798;51.064;13.734;2022-08-24T07:18:56;21.50;99.90
44136;DHT22;29798;51.064;13.734;2022-08-24T07:21:23;21.80;99.90
44136;DHT22;29798;51.064;13.734;2022-08-24T07:23:53;22.00;99.90
44136;DHT22;29798;51.064;13.734;2022-08-24T07:26:20;22.20;99.90
44136;DHT22;29798;51.064;13.734;2022-08-24T07:28:50;22.40;99.90
44136;DHT22;29798;51.064;13.734;2022-08-24T07:31:16;22.50;99.90
44136;DHT22;29798;51.064;13.734;2022-08-24T07:33:51;22.50;99.90
44136;DHT22;29798;51.064;13.734;2022-08-24T07:36:17;22.60;99.90
44136;DHT22;29798;51.064;13.734;2022-08-24T07:38:44;22.70;99.90
44136;DHT22;29798;51.064;13.734;2022-08-24T07:41:12;22.70;99.90
44136;DHT22;29798;51.064;13.734;2022-08-24T07:43:40;22.70;99.90
44136;DHT22;29798;51.064;13.734;2022-08-24T07:46:06;22.90;99.90
44136;DHT22;29798;51.064;13.734;2022-08-24T07:48:33;22.90;99.90
44136;DHT22;29798;51.064;13.734;2022-08-24T07:51:10;23.10;99.90
44136;DHT22;29798;51.064;13.734;2022-08-24T07:53:42;23.30;99.90
44136;DHT22;29798;51.064;13.734;2022-08-24T07:56:08;23.40;99.90
44136;DHT22;29798;51.064;13.734;2022-08-24T07:58:36;23.50;99.90
44136;DHT22;29798;51.064;13.734;2022-08-24T08:01:02;23.60;99.90
44136;DHT22;29798;51.064;13.734;2022-08-24T08:03:31;23.70;99.90
44136;DHT22;29798;51.064;13.734;2022-08-24T08:06:01;23.70;99.90
44136;DHT22;29798;51.064;13.734;2022-08-24T08:08:29;23.70;99.90
44136;DHT22;29798;51.064;13.734;2022-08-24T08:11:02;23.70;99.90
44136;DHT22;29798;51.064;13.734;2022-08-24T08:13:29;23.80;99.90
44136;DHT22;29798;51.064;13.734;2022-08-24T08:15:56;23.70;99.90
44136;DHT22;29798;51.064;13.734;2022-08-24T08:18:24;23.80;99.90
44136;DHT22;29798;51.064;13.734;2022-08-24T08:20:50;24.00;99.90
44136;DHT22;29798;51.064;13.734;2022-08-24T08:23:16;24.30;99.90
44136;DHT22;29798;51.064;13.734;2022-08-24T08:26:15;24.50;99.90
44136;DHT22;29798;51.064;13.734;2022-08-24T08:28:54;24.80;99.90
44136;DHT22;29798;51.064;13.734;2022-08-24T08:31:20;25.00;99.90
44136;DHT22;29798;51.064;13.734;2022-08-24T08:33:46;25.30;99.90
44136;DHT22;29798;51.064;13.734;2022-08-24T08:36:12;25.70;99.90
44136;DHT22;29798;51.064;13.734;2022-08-24T08:38:48;25.90;99.90
44136;DHT22;29798;51.064;13.734;2022-08-24T08:50:05;25.90;99.90
44136;DHT22;29798;51.064;13.734;2022-08-24T08:55:25;26.20;99.90
44136;DHT22;29798;51.064;13.734;2022-08-24T08:58:07;26.20;99.90
44136;DHT22;29798;51.064;13.734;2022-08-24T09:29:11;26.50;99.90
44136;DHT22;29798;51.064;13.734;2022-08-24T09:31:56;26.50;99.90
44136;DHT22;29798;51.064;13.734;2022-08-24T09:35:02;26.40;99.90
44136;DHT22;29798;51.064;13.734;2022-08-24T09:40:27;26.30;99.90
44136;DHT22;29798;51.064;13.734;2022-08-24T09:43:10;26.50;99.90
44136;DHT22;29798;51.064;13.734;2022-08-24T09:46:08;26.80;99.90
44136;DHT22;29798;51.064;13.734;2022-08-24T09:57:17;28.40;99.90
44136;DHT22;29798;51.064;13.734;2022-08-24T09:59:57;28.30;99.90
44136;DHT22;29798;51.064;13.734;2022-08-24T10:05:51;28.40;99.90
44136;DHT22;29798;51.064;13.734;2022-08-24T10:14:18;29.30;99.90
44136;DHT22;29798;51.064;13.734;2022-08-24T10:19:44;29.90;99.90
44136;DHT22;29798;51.064;13.734;2022-08-24T10:27:59;30.40;99.90
44136;DHT22;29798;51.064;13.734;2022-08-24T10:33:27;29.30;99.90
44136;DHT22;29798;51.064;13.734;2022-08-24T10:39:29;29.20;99.90
44136;DHT22;29798;51.064;13.734;2022-08-24T10:53:45;30.90;99.90
44136;DHT22;29798;51.064;13.734;2022-08-24T10:56:13;31.00;99.90
44136;DHT22;29798;51.064;13.734;2022-08-24T11:01:21;30.80;99.90
44136;DHT22;29798;51.064;13.734;2022-08-24T11:06:28;30.00;99.90
44136;DHT22;29798;51.064;13.734;2022-08-24T11:11:39;29.30;99.90
44136;DHT22;29798;51.064;13.734;2022-08-24T11:16:40;28.50;99.90
44136;DHT22;29798;51.064;13.734;2022-08-24T11:19:10;28.30;99.90
44136;DHT22;29798;51.064;13.734;2022-08-24T11:21:42;28.20;99.90
44136;DHT22;29798;51.064;13.734;2022-08-24T11:24:37;28.40;99.90
44136;DHT22;29798;51.064;13.734;2022-08-24T11:27:27;28.50;99.90
44136;DHT22;29798;51.064;13.734;2022-08-24T11:29:57;28.60;99.90
44136;DHT22;29798;51.064;13.734;2022-08-24T11:35:01;28.80;99.90
44136;DHT22;29798;51.064;13.734;2022-08-24T11:37:33;29.20;99.90
44136;DHT22;29798;51.064;13.734;2022-08-24T11:40:03;29.60;99.90
44136;DHT22;29798;51.064;13.734;2022-08-24T11:45:29;29.60;99.90
44136;DHT22;29798;51.064;13.734;2022-08-24T11:50:56;29.70;99.90
44136;DHT22;29798;51.064;13.734;2022-08-24T11:53:31;30.00;99.90
44136;DHT22;29798;51.064;13.734;2022-08-24T11:56:37;30.50;99.90
44136;DHT22;29798;51.064;13.734;2022-08-24T12:04:04;32.80;99.90
44136;DHT22;29798;51.064;13.734;2022-08-24T12:15:12;32.90;99.90
44136;DHT22;29798;51.064;13.734;2022-08-24T12:17:45;32.70;99.90
44136;DHT22;29798;51.064;13.734;2022-08-24T12:22:55;32.10;99.90
44136;DHT22;29798;51.064;13.734;2022-08-24T12:25:24;32.00;99.90
44136;DHT22;29798;51.064;13.734;2022-08-24T12:28:10;32.90;99.90
44136;DHT22;29798;51.064;13.734;2022-08-24T12:30:37;32.00;99.90
44136;DHT22;29798;51.064;13.734;2022-08-24T12:33:07;32.00;99.90
44136;DHT22;29798;51.064;13.734;2022-08-24T12:35:40;32.30;99.90
44136;DHT22;29798;51.064;13.734;2022-08-24T12:38:23;33.70;99.90
44136;DHT22;29798;51.064;13.734;2022-08-24T12:43:27;35.60;99.90
44136;DHT22;29798;51.064;13.734;2022-08-24T12:45:58;35.60;99.50
44136;DHT22;29798;51.064;13.734;2022-08-24T12:48:44;35.50;99.90
44136;DHT22;29798;51.064;13.734;2022-08-24T13:00:01;34.90;99.10
44136;DHT22;29798;51.064;13.734;2022-08-24T13:02:41;34.60;99.90
44136;DHT22;29798;51.064;13.734;2022-08-24T13:05:14;34.40;99.90
44136;DHT22;29798;51.064;13.734;2022-08-24T13:07:43;34.10;99.90
44136;DHT22;29798;51.064;13.734;2022-08-24T13:10:15;33.50;99.90
44136;DHT22;29798;51.064;13.734;2022-08-24T13:41:15;33.10;99.90
44136;DHT22;29798;51.064;13.734;2022-08-24T13:49:46;34.40;99.50
44136;DHT22;29798;51.064;13.734;2022-08-24T13:57:38;34.30;99.00
44136;DHT22;29798;51.064;13.734;2022-08-24T14:00:14;33.80;99.40
44136;DHT22;29798;51.064;13.734;2022-08-24T14:05:36;33.40;99.30
44136;DHT22;29798;51.064;13.734;2022-08-24T14:13:55;32.40;99.90
44136;DHT22;29798;51.064;13.734;2022-08-24T14:27:06;31.50;99.90
44136;DHT22;29798;51.064;13.734;2022-08-24T14:29:42;31.40;99.90
44136;DHT22;29798;51.064;13.734;2022-08-24T14:40:32;31.40;99.90
44136;DHT22;29798;51.064;13.734;2022-08-24T14:43:50;31.90;99.90
44136;DHT22;29798;51.064;13.734;2022-08-24T14:46:20;32.40;99.90
44136;DHT22;29798;51.064;13.734;2022-08-24T14:54:24;31.60;99.90
44136;DHT22;29798;51.064;13.734;2022-08-24T14:59:58;31.10;99.90
44136;DHT22;29798;51.064;13.734;2022-08-24T15:08:33;30.40;99.90
44136;DHT22;29798;51.064;13.734;2022-08-24T15:11:21;30.10;99.90
44136;DHT22;29798;51.064;13.734;2022-08-24T15:14:05;30.00;99.90
44136;DHT22;29798;51.064;13.734;2022-08-24T15:16:44;28.80;99.90
44136;DHT22;29798;51.064;13.734;2022-08-24T15:19:15;29.70;99.90
44136;DHT22;29798;51.064;13.734;2022-08-24T15:27:21;29.60;99.90
44136;DHT22;29798;51.064;13.734;2022-08-24T15:29:53;29.80;99.90
44136;DHT22;29798;51.064;13.734;2022-08-24T15:32:21;29.90;99.90
44136;DHT22;29798;51.064;13.734;2022-08-24T15:34:50;30.10;99.90
44136;DHT22;29798;51.064;13.734;2022-08-24T15:37:25;30.80;99.90
44136;DHT22;29798;51.064;13.734;2022-08-24T15:39:55;32.80;99.90
44136;DHT22;29798;51.064;13.734;2022-08-24T15:42:21;35.00;99.90
44136;DHT22;29798;51.064;13.734;2022-08-24T15:44:47;36.80;99.40
44136;DHT22;29798;51.064;13.734;2022-08-24T15:47:19;38.10;96.50
44136;DHT22;29798;51.064;13.734;2022-08-24T15:49:57;38.90;95.30
44136;DHT22;29798;51.064;13.734;2022-08-24T15:55:48;39.40;92.50
44136;DHT22;29798;51.064;13.734;2022-08-24T16:00:45;39.70;90.20
44136;DHT22;29798;51.064;13.734;2022-08-24T16:11:29;38.40;90.70
44136;DHT22;29798;51.064;13.734;2022-08-24T16:14:10;38.20;91.00
44136;DHT22;29798;51.064;13.734;2022-08-24T16:16:40;38.30;91.00
44136;DHT22;29798;51.064;13.734;2022-08-24T16:19:16;38.00;90.80
44136;DHT22;29798;51.064;13.734;2022-08-24T16:21:52;38.00;91.20
44136;DHT22;29798;51.064;13.734;2022-08-24T16:24:32;37.90;91.00
44136;DHT22;29798;51.064;13.734;2022-08-24T16:27:02;37.70;91.10
44136;DHT22;29798;51.064;13.734;2022-08-24T16:34:44;37.30;91.00
44136;DHT22;29798;51.064;13.734;2022-08-24T16:37:15;36.90;91.30
44136;DHT22;29798;51.064;13.734;2022-08-24T16:39:41;36.60;91.90
44136;DHT22;29798;51.064;13.734;2022-08-24T16:42:17;36.80;91.90
44136;DHT22;29798;51.064;13.734;2022-08-24T16:44:46;36.60;92.50
44136;DHT22;29798;51.064;13.734;2022-08-24T16:47:12;36.20;92.80
44136;DHT22;29798;51.064;13.734;2022-08-24T16:49:38;35.90;93.20
44136;DHT22;29798;51.064;13.734;2022-08-24T16:52:04;35.70;93.50
44136;DHT22;29798;51.064;13.734;2022-08-24T16:54:30;35.30;94.10
44136;DHT22;29798;51.064;13.734;2022-08-24T16:57:02;35.10;94.20
44136;DHT22;29798;51.064;13.734;2022-08-24T16:59:37;35.00;94.50
44136;DHT22;29798;51.064;13.734;2022-08-24T17:02:03;34.60;94.90
44136;DHT22;29798;51.064;13.734;2022-08-24T17:04:29;34.40;95.00
44136;DHT22;29798;51.064;13.734;2022-08-24T17:06:54;34.20;95.20
44136;DHT22;29798;51.064;13.734;2022-08-24T17:09:20;34.00;95.60
44136;DHT22;29798;51.064;13.734;2022-08-24T17:11:47;33.90;95.70
44136;DHT22;29798;51.064;13.734;2022-08-24T17:14:14;33.80;96.60
44136;DHT22;29798;51.064;13.734;2022-08-24T17:16:40;33.90;96.40
44136;DHT22;29798;51.064;13.734;2022-08-24T17:19:10;34.00;96.30
44136;DHT22;29798;51.064;13.734;2022-08-24T17:21:38;33.90;96.20
44136;DHT22;29798;51.064;13.734;2022-08-24T17:24:05;33.70;96.90
44136;DHT22;29798;51.064;13.734;2022-08-24T17:26:32;33.40;97.00
44136;DHT22;29798;51.064;13.734;2022-08-24T17:28:58;33.20;97.50
44136;DHT22;29798;51.064;13.734;2022-08-24T17:31:24;32.90;98.00
44136;DHT22;29798;51.064;13.734;2022-08-24T17:33:55;32.40;98.70
44136;DHT22;29798;51.064;13.734;2022-08-24T17:36:22;31.90;99.30
44136;DHT22;29798;51.064;13.734;2022-08-24T17:38:50;31.50;99.90
44136;DHT22;29798;51.064;13.734;2022-08-24T17:41:17;31.00;99.90
44136;DHT22;29798;51.064;13.734;2022-08-24T17:43:43;30.50;99.90
44136;DHT22;29798;51.064;13.734;2022-08-24T17:46:10;30.00;99.90
44136;DHT22;29798;51.064;13.734;2022-08-24T17:48:38;29.30;99.90
44136;DHT22;29798;51.064;13.734;2022-08-24T17:51:05;28.60;99.90
44136;DHT22;29798;51.064;13.734;2022-08-24T17:53:31;28.00;99.90
44136;DHT22;29798;51.064;13.734;2022-08-24T17:55:57;27.40;99.90
44136;DHT22;29798;51.064;13.734;2022-08-24T17:58:22;26.90;99.90
44136;DHT22;29798;51.064;13.734;2022-08-24T18:00:48;26.40;99.90
44136;DHT22;29798;51.064;13.734;2022-08-24T18:03:15;26.00;99.90
44136;DHT22;29798;51.064;13.734;2022-08-24T18:05:41;25.60;99.90
44136;DHT22;29798;51.064;13.734;2022-08-24T18:08:06;25.40;99.90
44136;DHT22;29798;51.064;13.734;2022-08-24T18:10:33;25.10;99.90
44136;DHT22;29798;51.064;13.734;2022-08-24T18:12:59;24.80;99.90
44136;DHT22;29798;51.064;13.734;2022-08-24T18:15:26;24.60;99.90
44136;DHT22;29798;51.064;13.734;2022-08-24T18:17:55;24.30;99.90
44136;DHT22;29798;51.064;13.734;2022-08-24T18:20:25;24.10;99.90
44136;DHT22;29798;51.064;13.734;2022-08-24T18:22:52;23.90;99.90
44136;DHT22;29798;51.064;13.734;2022-08-24T18:25:19;23.70;99.90
44136;DHT22;29798;51.064;13.734;2022-08-24T18:27:47;23.60;99.90
44136;DHT22;29798;51.064;13.734;2022-08-24T18:30:21;23.50;99.90
44136;DHT22;29798;51.064;13.734;2022-08-24T18:32:51;23.40;99.90
44136;DHT22;29798;51.064;13.734;2022-08-24T18:35:17;23.30;99.90
44136;DHT22;29798;51.064;13.734;2022-08-24T18:37:43;23.20;99.90
44136;DHT22;29798;51.064;13.734;2022-08-24T18:40:09;23.00;99.90
44136;DHT22;29798;51.064;13.734;2022-08-24T18:42:36;23.00;99.90
44136;DHT22;29798;51.064;13.734;2022-08-24T18:45:05;22.90;99.90
44136;DHT22;29798;51.064;13.734;2022-08-24T18:47:32;22.80;99.90
44136;DHT22;29798;51.064;13.734;2022-08-24T18:49:58;22.70;99.90
44136;DHT22;29798;51.064;13.734;2022-08-24T18:52:24;22.60;99.90
44136;DHT22;29798;51.064;13.734;2022-08-24T18:54:50;22.50;99.90
44136;DHT22;29798;51.064;13.734;2022-08-24T18:57:17;22.40;99.90
44136;DHT22;29798;51.064;13.734;2022-08-24T18:59:44;22.30;99.90
44136;DHT22;29798;51.064;13.734;2022-08-24T19:02:17;22.30;99.90
44136;DHT22;29798;51.064;13.734;2022-08-24T19:07:35;22.10;99.90
44136;DHT22;29798;51.064;13.734;2022-08-24T19:10:04;22.00;99.90
44136;DHT22;29798;51.064;13.734;2022-08-24T19:12:37;22.00;99.90
44136;DHT22;29798;51.064;13.734;2022-08-24T19:15:04;21.90;99.90
44136;DHT22;29798;51.064;13.734;2022-08-24T19:17:31;21.90;99.90
44136;DHT22;29798;51.064;13.734;2022-08-24T19:19:57;21.80;99.90
44136;DHT22;29798;51.064;13.734;2022-08-24T19:22:23;21.80;99.90
44136;DHT22;29798;51.064;13.734;2022-08-24T19:24:52;21.80;99.90
44136;DHT22;29798;51.064;13.734;2022-08-24T19:27:19;22.90;99.90
44136;DHT22;29798;51.064;13.734;2022-08-24T19:29:45;21.70;99.90
44136;DHT22;29798;51.064;13.734;2022-08-24T19:32:11;21.70;99.90
44136;DHT22;29798;51.064;13.734;2022-08-24T19:34:39;21.60;99.90
44136;DHT22;29798;51.064;13.734;2022-08-24T19:37:05;21.60;99.90